Time;durP1;ratioP1;P1;durP2;ratioP2;P2;SDS_P1;SDS_P2;PMS_P1;PMS_P2;Temp;Humidity;BMP_temperature;BMP_pressure;BME280_temperature;BME280_humidity;BME280_pressure;Samples;Min_cycle;Max_cycle;Signal;HPM_P1;HPM_P2
2023/07/08 00:00:48;;;;;;;;;9.75;9.75;;;;;35.29;26.28;100356.72;5024285;28;45277;-72
2023/07/08 00:03:14;;;;;;;;;8.75;8.75;;;;;35.15;26.69;100347.91;5040500;28;45349;-80
2023/07/08 00:05:40;;;;;;;;;10.75;10.75;;;;;35.14;26.44;100344.31;5041524;28;46961;-75
2023/07/08 00:08:17;;;;;;;;;10.50;10.50;;;;;35.14;26.57;100348.97;5044366;28;45272;-75
2023/07/08 00:10:43;;;;;;;;;13.50;12.00;;;;;35.09;26.47;100352.38;5047518;28;45327;-74
2023/07/08 00:13:09;;;;;;;;;8.75;8.75;;;;;34.84;26.59;100327.84;5045288;28;45476;-79
2023/07/08 00:15:36;;;;;;;;;10.75;10.75;;;;;35.06;26.93;100366.50;5040545;28;46318;-73
2023/07/08 00:18:10;;;;;;;;;9.75;9.75;;;;;35.05;26.60;100364.84;5048523;28;45265;-74
2023/07/08 00:20:43;;;;;;;;;10.50;9.75;;;;;35.06;26.55;100363.78;5055093;28;45220;-72
2023/07/08 00:23:09;;;;;;;;;12.50;12.50;;;;;35.05;26.76;100362.09;5045870;28;45416;-71
2023/07/08 00:25:34;;;;;;;;;11.00;11.00;;;;;35.06;26.66;100371.97;5036022;28;47057;-80
2023/07/08 00:28:00;;;;;;;;;9.75;9.75;;;;;35.06;26.86;100377.44;5030317;28;45244;-82
2023/07/08 00:30:29;;;;;;;;;8.25;8.25;;;;;35.08;26.57;100373.41;5042516;28;45294;-85
2023/07/08 00:32:55;;;;;;;;;9.00;9.00;;;;;35.08;26.50;100378.88;5029554;28;45498;-83
2023/07/08 00:35:33;;;;;;;;;8.50;8.50;;;;;35.18;26.43;100386.53;5042113;28;45445;-83
2023/07/08 00:38:02;;;;;;;;;11.50;11.50;;;;;35.05;27.02;100383.97;5040771;28;45449;-71
2023/07/08 00:40:32;;;;;;;;;10.50;10.50;;;;;35.03;26.98;100386.94;5022361;28;45352;-79
2023/07/08 00:43:01;;;;;;;;;9.25;9.25;;;;;35.02;26.79;100393.47;5042618;28;45237;-83
2023/07/08 00:45:37;;;;;;;;;12.50;12.50;;;;;35.12;26.62;100401.09;5021227;28;47249;-81
2023/07/08 00:48:17;;;;;;;;;9.75;9.75;;;;;35.15;26.58;100402.56;5021114;28;45432;-81
2023/07/08 00:50:43;;;;;;;;;8.00;8.00;;;;;35.09;26.70;100398.84;5039735;28;45262;-72
2023/07/08 00:53:27;;;;;;;;;10.75;10.75;;;;;35.13;26.58;100397.31;5038917;28;45555;-72
2023/07/08 00:56:26;;;;;;;;;17.50;17.50;;;;;35.09;26.86;100380.56;5038249;28;45587;-70
2023/07/08 00:59:11;;;;;;;;;16.25;15.75;;;;;35.15;26.76;100388.91;5037993;28;45339;-74
2023/07/08 01:01:39;;;;;;;;;22.25;22.25;;;;;35.13;26.56;100391.84;5038133;28;45305;-76
2023/07/08 01:04:19;;;;;;;;;16.25;16.25;;;;;35.15;26.52;100386.97;5038108;28;45550;-76
2023/07/08 01:06:52;;;;;;;;;15.75;15.75;;;;;35.00;26.87;100364.69;5041907;28;45218;-72
2023/07/08 01:09:18;;;;;;;;;12.50;12.50;;;;;34.98;26.83;100373.09;5020483;28;45271;-77
2023/07/08 01:11:44;;;;;;;;;12.75;12.75;;;;;34.98;26.77;100384.03;5040111;28;45329;-72
2023/07/08 01:14:19;;;;;;;;;9.50;9.50;;;;;35.06;26.63;100385.63;5041039;28;45486;-68
2023/07/08 01:16:44;;;;;;;;;13.00;13.00;;;;;35.03;26.85;100384.22;5043214;28;45304;-66
2023/07/08 01:19:15;;;;;;;;;15.25;15.25;;;;;34.91;26.46;100391.44;5041022;28;45178;-74
2023/07/08 01:21:53;;;;;;;;;12.25;12.25;;;;;34.89;27.25;100401.78;5040906;28;45328;-76
2023/07/08 01:24:18;;;;;;;;;13.25;13.25;;;;;34.85;27.18;100393.22;5040955;28;45186;-68
2023/07/08 01:26:45;;;;;;;;;21.25;19.25;;;;;34.81;26.77;100401.00;5024902;28;46670;-74
2023/07/08 01:29:12;;;;;;;;;20.25;20.25;;;;;34.80;27.00;100393.06;5026905;28;45556;-70
2023/07/08 01:31:38;;;;;;;;;24.75;24.75;;;;;34.77;27.09;100388.06;5043687;28;45565;-68
2023/07/08 01:34:05;;;;;;;;;34.50;32.25;;;;;34.71;27.35;100375.31;5041314;28;45464;-68
2023/07/08 01:36:38;;;;;;;;;37.50;34.00;;;;;34.79;27.44;100386.75;5040908;28;45940;-67
2023/07/08 01:39:04;;;;;;;;;43.50;36.25;;;;;34.68;27.30;100395.69;5042048;28;45448;-70
2023/07/08 01:41:29;;;;;;;;;42.25;36.00;;;;;34.70;27.53;100400.94;5041420;28;45463;-69
2023/07/08 01:43:54;;;;;;;;;42.50;36.75;;;;;34.71;27.29;100408.09;5023256;28;45327;-67
2023/07/08 01:46:29;;;;;;;;;47.50;39.50;;;;;34.63;27.50;100403.75;5039945;28;45485;-67
2023/07/08 01:48:59;;;;;;;;;31.00;30.00;;;;;34.61;27.45;100419.53;5009016;28;45610;-68
2023/07/08 01:51:26;;;;;;;;;47.25;40.00;;;;;34.60;27.92;100464.28;5048134;28;45236;-70
2023/07/08 01:53:51;;;;;;;;;35.75;32.75;;;;;34.59;27.64;100500.84;5052029;28;44837;-75
2023/07/08 01:56:17;;;;;;;;;21.75;19.25;;;;;34.39;27.88;100493.63;5048679;28;45361;-74
2023/07/08 01:58:43;;;;;;;;;10.75;10.75;;;;;34.56;27.85;100501.28;5046164;28;45474;-78
2023/07/08 02:01:08;;;;;;;;;10.00;10.00;;;;;34.52;27.92;100509.94;5048218;28;45242;-83
2023/07/08 02:03:35;;;;;;;;;9.50;9.50;;;;;34.47;27.74;100517.94;5045688;28;44829;-73
2023/07/08 02:06:01;;;;;;;;;3.00;3.00;;;;;34.48;28.19;100518.81;5049253;28;45416;-76
2023/07/08 02:08:27;;;;;;;;;10.00;10.00;;;;;34.46;28.32;100520.84;5052223;28;44836;-72
2023/07/08 02:10:57;;;;;;;;;10.00;10.00;;;;;34.37;28.24;100531.22;5050010;28;45442;-68
2023/07/08 02:13:23;;;;;;;;;6.00;6.00;;;;;34.32;28.52;100533.78;5044184;28;45293;-70
2023/07/08 02:15:49;;;;;;;;;7.75;7.75;;;;;34.34;28.89;100539.88;5041461;28;45475;-68
2023/07/08 02:18:15;;;;;;;;;8.75;8.75;;;;;34.33;28.77;100538.19;5023778;28;45407;-68
2023/07/08 02:20:40;;;;;;;;;7.50;7.50;;;;;34.27;28.87;100534.44;5023930;28;45378;-73
2023/07/08 02:23:05;;;;;;;;;8.50;8.50;;;;;34.22;29.26;100524.19;5042599;28;45765;-67
2023/07/08 02:25:31;;;;;;;;;9.75;9.75;;;;;34.18;29.39;100512.06;5041407;28;45442;-67
2023/07/08 02:27:57;;;;;;;;;8.00;8.00;;;;;33.91;29.94;100509.44;5040424;28;45361;-75
2023/07/08 02:30:23;;;;;;;;;5.50;5.50;;;;;33.96;30.19;100516.19;5040083;28;45264;-70
2023/07/08 02:32:56;;;;;;;;;6.00;6.00;;;;;33.98;30.04;100505.88;5039978;28;45550;-68
2023/07/08 02:35:23;;;;;;;;;3.00;3.00;;;;;33.88;30.16;100500.88;5040612;28;46289;-71
2023/07/08 02:37:48;;;;;;;;;4.75;4.75;;;;;33.77;30.34;100477.84;5041494;28;45377;-71
2023/07/08 02:40:14;;;;;;;;;5.25;5.25;;;;;33.70;30.69;100493.41;5040889;28;45276;-68
2023/07/08 02:42:39;;;;;;;;;5.25;5.25;;;;;33.68;30.51;100490.06;5041033;28;45445;-73
2023/07/08 02:45:05;;;;;;;;;2.75;2.75;;;;;33.73;29.90;100499.28;5041828;28;50851;-72
2023/07/08 02:47:31;;;;;;;;;5.00;5.00;;;;;33.67;30.44;100505.59;5022627;28;45873;-75
2023/07/08 02:49:56;;;;;;;;;3.00;3.00;;;;;33.60;30.94;100483.81;5041667;28;45361;-74
2023/07/08 02:52:21;;;;;;;;;2.00;2.00;;;;;33.73;31.02;100487.50;5044111;28;45164;-81
2023/07/08 02:54:47;;;;;;;;;4.50;4.50;;;;;33.83;30.86;100492.50;5024757;28;47045;-78
2023/07/08 02:57:12;;;;;;;;;3.25;3.25;;;;;33.77;31.07;100481.41;5043649;28;45297;-81
2023/07/08 02:59:38;;;;;;;;;4.75;4.75;;;;;33.65;30.85;100456.72;5043781;28;45406;-75
2023/07/08 03:02:04;;;;;;;;;4.00;4.00;;;;;33.64;30.60;100462.41;5050210;28;44878;-71
2023/07/08 03:04:30;;;;;;;;;4.25;4.25;;;;;33.70;31.46;100466.13;5048130;28;45301;-76
2023/07/08 03:06:55;;;;;;;;;2.75;2.75;;;;;33.69;31.16;100459.84;5049935;28;45422;-78
2023/07/08 03:09:21;;;;;;;;;2.00;2.00;;;;;33.47;31.35;100448.44;5048555;28;45315;-71
2023/07/08 03:11:46;;;;;;;;;2.50;2.50;;;;;33.47;31.29;100456.59;5025343;28;45604;-72
2023/07/08 03:14:12;;;;;;;;;2.00;2.00;;;;;33.44;31.27;100457.88;5041722;28;45767;-72
2023/07/08 03:16:37;;;;;;;;;2.75;2.75;;;;;33.26;31.31;100416.81;5041419;28;45357;-72
2023/07/08 03:19:04;;;;;;;;;3.00;3.00;;;;;33.40;31.05;100459.34;5041753;28;45328;-75
2023/07/08 03:21:30;;;;;;;;;3.00;3.00;;;;;33.31;31.31;100456.00;5049102;28;45404;-72
2023/07/08 03:23:55;;;;;;;;;2.00;2.00;;;;;33.30;30.82;100443.44;5026332;28;48140;-74
2023/07/08 03:26:23;;;;;;;;;2.00;2.00;;;;;33.41;31.67;100446.56;5048521;28;45312;-70
2023/07/08 03:28:50;;;;;;;;;3.00;3.00;;;;;33.39;31.15;100441.28;5048307;28;45423;-72
2023/07/08 03:31:16;;;;;;;;;4.25;4.25;;;;;33.38;31.23;100446.97;5043214;28;45514;-69
2023/07/08 03:33:42;;;;;;;;;2.25;2.25;;;;;33.42;31.41;100448.25;5041978;28;46314;-72
2023/07/08 03:36:13;;;;;;;;;2.50;2.50;;;;;33.39;31.57;100438.56;5039208;28;45434;-76
2023/07/08 03:38:38;;;;;;;;;5.50;5.50;;;;;33.34;30.87;100439.22;5039544;28;45303;-74
2023/07/08 03:41:04;;;;;;;;;2.00;2.00;;;;;33.33;31.38;100432.09;5022752;28;45315;-81
2023/07/08 03:43:30;;;;;;;;;1.75;1.75;;;;;33.22;30.92;100430.88;5022099;28;45390;-73
2023/07/08 03:45:55;;;;;;;;;1.75;1.75;;;;;33.10;31.98;100413.53;5039245;28;45423;-73
2023/07/08 03:48:21;;;;;;;;;2.50;2.50;;;;;33.04;31.49;100401.63;5039058;28;45268;-77
2023/07/08 03:50:46;;;;;;;;;2.00;2.00;;;;;33.02;31.12;100411.03;5041758;28;47492;-71
2023/07/08 03:53:11;;;;;;;;;4.00;3.75;;;;;33.00;31.27;100403.09;5041051;28;46112;-70
2023/07/08 03:55:37;;;;;;;;;1.00;1.00;;;;;33.05;31.59;100394.28;5042500;28;45380;-74
2023/07/08 03:58:02;;;;;;;;;1.75;1.75;;;;;33.01;30.99;100376.69;5027625;28;45422;-71
2023/07/08 04:00:28;;;;;;;;;1.00;1.00;;;;;33.10;31.14;100385.47;5041763;28;45253;-70
2023/07/08 04:02:53;;;;;;;;;3.75;3.75;;;;;33.18;31.26;100361.50;5039438;28;47633;-77
2023/07/08 04:05:21;;;;;;;;;1.00;1.00;;;;;33.12;30.66;100359.66;5025143;28;45369;-82
2023/07/08 04:07:47;;;;;;;;;2.25;2.25;;;;;33.07;31.14;100364.91;5044899;28;44833;-83
2023/07/08 04:10:14;;;;;;;;;2.50;2.50;;;;;33.01;31.48;100361.19;5023151;28;45516;-75
2023/07/08 04:12:40;;;;;;;;;2.00;2.00;;;;;32.97;31.16;100353.66;5044738;28;45395;-76
2023/07/08 04:15:07;;;;;;;;;1.50;1.50;;;;;32.95;31.23;100344.88;5044250;28;45519;-80
2023/07/08 04:17:33;;;;;;;;;3.00;3.00;;;;;32.92;31.46;100335.25;5040122;28;45249;-71
2023/07/08 04:20:06;;;;;;;;;2.00;2.00;;;;;32.84;31.47;100321.81;5038642;28;45419;-73
2023/07/08 04:22:31;;;;;;;;;3.00;3.00;;;;;32.96;31.69;100335.63;5019246;28;47160;-76
2023/07/08 04:24:56;;;;;;;;;3.00;3.00;;;;;32.96;31.42;100322.88;5037982;28;45364;-77
2023/07/08 04:27:22;;;;;;;;;2.50;2.50;;;;;32.95;30.99;100321.19;5040309;28;45535;-76
2023/07/08 04:29:48;;;;;;;;;4.75;4.75;;;;;33.00;31.06;100331.44;5020630;28;45441;-69
2023/07/08 04:32:13;;;;;;;;;3.75;3.75;;;;;32.97;30.90;100332.72;5037472;28;45988;-67
2023/07/08 04:34:39;;;;;;;;;1.00;1.00;;;;;32.95;31.09;100337.53;5038973;28;45240;-68
2023/07/08 04:37:04;;;;;;;;;2.00;2.00;;;;;33.01;31.27;100344.00;5019920;28;45605;-65
2023/07/08 04:39:30;;;;;;;;;5.00;5.00;;;;;33.16;31.74;100368.25;5022266;28;45499;-68
2023/07/08 04:41:56;;;;;;;;;3.50;3.50;;;;;33.21;31.00;100382.88;5021395;28;47872;-64
2023/07/08 04:44:22;;;;;;;;;4.75;4.75;;;;;33.25;30.65;100383.28;5037839;28;45410;-67
2023/07/08 04:46:55;;;;;;;;;2.75;2.75;;;;;33.28;31.42;100388.31;5038945;28;45286;-67
2023/07/08 04:49:21;;;;;;;;;3.25;3.25;;;;;33.22;31.21;100375.56;5039287;28;45260;-73
2023/07/08 04:51:46;;;;;;;;;2.25;2.25;;;;;33.35;31.35;100389.09;5040475;28;45277;-67
2023/07/08 04:54:12;;;;;;;;;4.00;4.00;;;;;33.41;30.52;100401.06;5043419;28;44964;-78
2023/07/08 04:56:39;;;;;;;;;3.75;3.75;;;;;33.53;30.80;100398.47;5041614;28;45216;-73
2023/07/08 04:59:05;;;;;;;;;2.25;2.25;;;;;33.67;30.75;100406.56;5043258;28;45289;-65
2023/07/08 05:01:31;;;;;;;;;5.00;5.00;;;;;33.98;30.33;100405.75;5048608;28;46263;-67
2023/07/08 05:03:56;;;;;;;;;4.00;4.00;;;;;34.33;29.83;100413.44;5050139;28;45501;-80
2023/07/08 05:06:22;;;;;;;;;5.00;4.50;;;;;34.36;30.06;100403.97;5045436;28;45477;-70
2023/07/08 05:08:47;;;;;;;;;6.50;6.50;;;;;34.48;29.60;100417.78;5036649;28;45570;-69
2023/07/08 05:11:12;;;;;;;;;6.00;6.00;;;;;34.53;29.59;100447.97;5037381;28;58601;-66
2023/07/08 05:13:38;;;;;;;;;3.00;3.00;;;;;34.50;29.63;100442.97;5036977;28;45352;-66
2023/07/08 05:16:03;;;;;;;;;3.50;3.50;;;;;34.53;29.22;100437.03;5038911;28;45483;-67
2023/07/08 05:18:28;;;;;;;;;2.00;2.00;;;;;34.71;29.22;100429.94;5042816;28;45479;-67
2023/07/08 05:20:55;;;;;;;;;3.75;3.75;;;;;34.94;29.16;100435.56;5040553;28;45389;-81
2023/07/08 05:23:21;;;;;;;;;3.50;3.50;;;;;35.01;28.88;100431.94;5039721;28;45237;-79
2023/07/08 05:25:47;;;;;;;;;1.75;1.75;;;;;35.03;28.93;100432.53;5039728;28;45404;-67
2023/07/08 05:28:13;;;;;;;;;5.75;5.75;;;;;35.05;28.86;100446.81;5037447;28;45491;-66
2023/07/08 05:30:40;;;;;;;;;3.00;3.00;;;;;35.14;28.64;100447.34;5038271;28;46117;-73
2023/07/08 05:33:06;;;;;;;;;2.00;2.00;;;;;35.19;28.73;100466.66;5037277;28;45482;-73
2023/07/08 05:35:31;;;;;;;;;4.50;4.50;;;;;35.22;28.59;100483.41;5037563;28;45454;-68
2023/07/08 05:37:57;;;;;;;;;2.75;2.75;;;;;35.24;28.73;100500.41;5039423;28;45303;-66
2023/07/08 05:40:22;;;;;;;;;4.25;4.25;;;;;35.16;29.09;100494.44;5038672;28;45915;-65
2023/07/08 05:42:47;;;;;;;;;5.00;4.00;;;;;35.07;28.98;100486.53;5037524;28;45383;-65
2023/07/08 05:45:13;;;;;;;;;4.00;4.00;;;;;34.99;28.63;100489.53;5041518;28;49774;-68
2023/07/08 05:47:38;;;;;;;;;3.25;3.25;;;;;35.02;28.77;100499.19;5045411;28;45609;-67
2023/07/08 05:50:04;;;;;;;;;2.00;2.00;;;;;35.07;28.78;100507.56;5037923;28;45333;-75
2023/07/08 05:52:30;;;;;;;;;4.00;4.00;;;;;35.19;28.81;100515.84;5018538;28;45714;-69
2023/07/08 05:54:55;;;;;;;;;3.50;3.50;;;;;35.36;28.52;100511.44;5019091;28;45367;-70
2023/07/08 05:57:23;;;;;;;;;3.75;3.75;;;;;35.58;28.53;100500.03;5036295;28;45598;-73
2023/07/08 05:59:50;;;;;;;;;3.50;3.50;;;;;35.80;28.71;100503.13;5018608;28;45429;-70
2023/07/08 06:02:16;;;;;;;;;3.00;3.00;;;;;35.97;28.03;100518.88;5040351;28;45325;-72
2023/07/08 06:04:42;;;;;;;;;6.00;6.00;;;;;36.06;27.92;100517.50;5041442;28;45329;-67
2023/07/08 06:07:07;;;;;;;;;4.25;4.25;;;;;36.19;27.68;100530.19;5041763;28;45325;-81
2023/07/08 06:09:33;;;;;;;;;3.00;3.00;;;;;36.20;27.69;100537.31;5039505;28;45893;-75
2023/07/08 06:11:59;;;;;;;;;4.25;4.25;;;;;36.25;27.91;100531.13;5040069;28;45144;-74
2023/07/08 06:14:24;;;;;;;;;4.50;4.50;;;;;36.32;27.66;100550.19;5021578;28;45609;-65
2023/07/08 06:16:50;;;;;;;;;8.00;8.00;;;;;36.33;27.85;100557.34;5039513;28;45587;-67
2023/07/08 06:19:17;;;;;;;;;5.25;5.25;;;;;36.23;27.79;100566.13;5039025;28;46145;-71
2023/07/08 06:21:42;;;;;;;;;5.25;5.25;;;;;36.24;28.38;100574.13;5039931;28;45281;-67
2023/07/08 06:24:08;;;;;;;;;3.50;3.50;;;;;36.29;28.42;100580.78;5041691;28;45514;-68
2023/07/08 06:26:34;;;;;;;;;5.75;5.75;;;;;36.21;28.43;100581.94;5039451;28;45579;-68
2023/07/08 06:28:59;;;;;;;;;4.00;4.00;;;;;36.02;28.37;100582.00;5020769;28;47553;-68
2023/07/08 06:31:24;;;;;;;;;5.00;4.75;;;;;35.91;28.47;100594.53;5038791;28;45435;-66
2023/07/08 06:33:50;;;;;;;;;5.50;5.50;;;;;35.75;28.47;100589.69;5042832;28;45353;-67
2023/07/08 06:36:16;;;;;;;;;4.75;4.75;;;;;35.65;28.69;100584.75;5046691;28;45653;-68
2023/07/08 06:38:41;;;;;;;;;5.00;5.00;;;;;35.55;28.88;100593.50;5026571;28;45997;-68
2023/07/08 06:41:07;;;;;;;;;5.25;5.25;;;;;35.53;29.06;100598.34;5041179;28;45347;-76
2023/07/08 06:43:32;;;;;;;;;6.25;6.25;;;;;35.52;29.12;100596.69;5028645;28;45536;-71
2023/07/08 06:45:57;;;;;;;;;5.00;5.00;;;;;35.51;28.67;100609.50;5030153;28;44861;-76
2023/07/08 06:48:24;;;;;;;;;3.00;3.00;;;;;35.58;29.19;100608.63;5046426;28;46299;-79
2023/07/08 06:50:50;;;;;;;;;5.25;5.25;;;;;35.54;29.25;100602.75;5024755;28;45309;-72
2023/07/08 06:53:16;;;;;;;;;5.00;5.00;;;;;35.59;29.33;100610.28;5040857;28;45174;-78
2023/07/08 06:55:44;;;;;;;;;3.00;3.00;;;;;35.64;29.35;100594.84;5043460;28;45295;-74
2023/07/08 06:58:09;;;;;;;;;3.00;3.00;;;;;35.68;28.96;100612.47;5043502;28;46523;-76
2023/07/08 07:00:34;;;;;;;;;2.25;2.25;;;;;35.77;29.16;100615.75;5043012;28;54928;-79
2023/07/08 07:03:00;;;;;;;;;12.50;12.50;;;;;35.82;28.62;100612.31;5042501;28;63719;-77
2023/07/08 07:05:25;;;;;;;;;3.00;3.00;;;;;35.80;28.60;100606.25;5045090;28;45386;-67
2023/07/08 07:07:52;;;;;;;;;2.75;2.75;;;;;35.82;28.66;100607.69;5046138;28;46192;-68
2023/07/08 07:10:18;;;;;;;;;3.75;3.50;;;;;35.91;28.75;100618.31;5050469;28;45354;-72
2023/07/08 07:12:44;;;;;;;;;2.75;2.75;;;;;35.91;28.91;100621.88;5041454;28;45147;-71
2023/07/08 07:15:09;;;;;;;;;3.75;3.75;;;;;35.97;28.85;100639.31;5040373;28;45634;-68
2023/07/08 07:17:35;;;;;;;;;4.00;4.00;;;;;36.09;28.60;100633.94;5039402;28;46377;-67
2023/07/08 07:20:01;;;;;;;;;5.00;5.00;;;;;36.11;28.22;100618.09;5039264;28;45188;-68
2023/07/08 07:22:28;;;;;;;;;5.00;5.00;;;;;36.20;28.40;100630.41;5039342;28;45395;-70
2023/07/08 07:24:54;;;;;;;;;4.00;4.00;;;;;36.26;27.95;100632.22;5039539;28;45836;-68
2023/07/08 07:27:20;;;;;;;;;3.50;3.50;;;;;36.34;27.71;100635.69;5038772;28;45321;-70
2023/07/08 07:29:50;;;;;;;;;2.75;2.75;;;;;36.48;28.15;100630.84;5039785;28;45342;-68
2023/07/08 07:32:17;;;;;;;;;1.00;1.00;;;;;36.52;27.57;100632.06;5038938;28;45207;-67
2023/07/08 07:34:42;;;;;;;;;3.00;3.00;;;;;36.58;27.75;100628.38;5037655;28;45471;-66
2023/07/08 07:37:16;;;;;;;;;3.75;3.75;;;;;36.78;28.07;100633.56;5038738;28;45487;-68
2023/07/08 07:39:42;;;;;;;;;4.50;4.50;;;;;36.85;27.51;100625.25;5038529;28;45474;-72
2023/07/08 07:42:09;;;;;;;;;4.50;4.50;;;;;37.01;27.61;100631.13;5038802;28;45162;-69
2023/07/08 07:44:34;;;;;;;;;5.00;5.00;;;;;37.11;27.47;100637.72;5038870;28;45446;-79
2023/07/08 07:47:00;;;;;;;;;4.00;3.00;;;;;37.22;26.67;100643.44;5021644;28;45351;-75
2023/07/08 07:49:25;;;;;;;;;5.00;5.00;;;;;37.28;27.30;100637.00;5040157;28;45934;-69
2023/07/08 07:51:54;;;;;;;;;4.75;4.75;;;;;37.41;27.11;100639.47;5044247;28;45307;-79
2023/07/08 07:54:19;;;;;;;;;4.00;4.00;;;;;37.44;26.45;100634.59;5040509;28;45634;-70
2023/07/08 07:56:44;;;;;;;;;6.00;6.00;;;;;37.57;26.95;100642.59;5037333;28;46046;-71
2023/07/08 07:59:11;;;;;;;;;4.50;4.50;;;;;37.69;26.83;100637.91;5037271;28;45409;-77
2023/07/08 08:01:41;;;;;;;;;4.25;4.25;;;;;37.73;26.85;100631.94;5038989;28;45198;-65
2023/07/08 08:04:11;;;;;;;;;10.75;10.75;;;;;37.77;26.40;100647.69;5024816;28;45435;-70
2023/07/08 08:06:45;;;;;;;;;4.50;4.50;;;;;38.02;26.46;100648.47;5025147;28;46702;-67
2023/07/08 08:09:15;;;;;;;;;5.50;5.50;;;;;37.86;26.20;100620.69;5046370;28;44781;-71
2023/07/08 08:11:41;;;;;;;;;1.00;1.00;;;;;38.25;25.76;100653.03;5033554;28;44784;-70
2023/07/08 08:14:14;;;;;;;;;5.00;5.00;;;;;38.40;26.07;100653.34;5044967;28;45339;-70
2023/07/08 08:16:48;;;;;;;;;5.50;5.50;;;;;38.39;25.92;100648.09;5047269;28;45579;-70
2023/07/08 08:19:14;;;;;;;;;4.00;4.00;;;;;38.31;25.75;100645.75;5037559;28;45375;-81
2023/07/08 08:21:39;;;;;;;;;3.50;3.50;;;;;38.42;25.87;100658.63;5020211;28;45407;-73
2023/07/08 08:24:05;;;;;;;;;6.25;6.25;;;;;38.34;25.81;100659.00;5042566;28;45302;-74
2023/07/08 08:26:30;;;;;;;;;5.00;5.00;;;;;38.32;25.94;100661.97;5041999;28;45384;-71
2023/07/08 08:28:56;;;;;;;;;7.50;7.50;;;;;38.56;25.46;100662.72;5038044;28;45292;-75
2023/07/08 08:31:22;;;;;;;;;7.00;7.00;;;;;38.63;25.57;100669.97;5038233;28;45399;-70
2023/07/08 08:33:47;;;;;;;;;8.00;8.00;;;;;38.83;25.71;100677.75;5021494;28;45589;-76
2023/07/08 08:36:12;;;;;;;;;5.75;5.75;;;;;39.02;25.48;100672.84;5040933;28;46365;-68
2023/07/08 08:38:38;;;;;;;;;7.25;7.25;;;;;39.19;25.48;100672.00;5043793;28;45920;-80
2023/07/08 08:41:11;;;;;;;;;7.00;7.00;;;;;39.37;25.34;100688.28;5039245;28;45291;-71
2023/07/08 08:43:39;;;;;;;;;5.25;5.25;;;;;39.56;25.09;100683.31;5040037;28;45396;-79
2023/07/08 08:46:10;;;;;;;;;5.75;5.75;;;;;39.75;24.98;100691.28;5039566;28;46087;-73
2023/07/08 08:48:48;;;;;;;;;5.50;5.50;;;;;39.92;24.72;100683.00;5040364;28;45327;-74
2023/07/08 08:51:15;;;;;;;;;8.00;8.00;;;;;39.94;24.60;100685.50;5039747;28;45393;-73
2023/07/08 08:53:42;;;;;;;;;5.00;5.00;;;;;40.02;24.65;100674.84;5042420;28;45303;-76
2023/07/08 08:56:24;;;;;;;;;5.00;5.00;;;;;40.13;24.12;100686.00;5045761;28;46318;-71
2023/07/08 08:59:23;;;;;;;;;6.25;6.25;;;;;40.09;23.97;100676.56;5042282;28;45624;-73
2023/07/08 09:01:50;;;;;;;;;4.50;4.50;;;;;39.89;24.32;100669.75;5038577;28;45294;-79
2023/07/08 09:04:25;;;;;;;;;7.00;7.00;;;;;39.88;24.37;100679.09;5020572;28;45390;-76
2023/07/08 09:06:58;;;;;;;;;4.50;4.50;;;;;39.86;24.61;100679.38;5021115;28;46316;-75
2023/07/08 09:09:36;;;;;;;;;3.75;3.75;;;;;39.81;24.69;100672.94;5022015;28;45867;-80
2023/07/08 09:12:10;;;;;;;;;5.25;5.25;;;;;39.82;24.53;100672.72;5040467;28;45419;-69
2023/07/08 09:14:38;;;;;;;;;6.50;6.50;;;;;39.99;24.55;100686.38;5045346;28;44726;-75
2023/07/08 09:17:21;;;;;;;;;7.25;7.25;;;;;40.11;24.19;100689.00;5048116;28;47185;-74
2023/07/08 09:20:01;;;;;;;;;6.50;6.50;;;;;40.16;24.12;100677.22;5023831;28;45257;-75
2023/07/08 09:22:43;;;;;;;;;9.00;9.00;;;;;40.31;24.53;100685.69;5041870;28;45371;-78
2023/07/08 09:25:15;;;;;;;;;7.75;7.75;;;;;40.56;24.58;100692.56;5042614;28;45236;-79
2023/07/08 09:27:40;;;;;;;;;7.25;7.25;;;;;40.81;24.43;100693.06;5021154;28;46810;-72
2023/07/08 09:30:14;;;;;;;;;8.00;8.00;;;;;41.08;24.03;100681.97;5041887;28;45309;-76
2023/07/08 09:32:39;;;;;;;;;5.25;5.25;;;;;41.17;23.52;100677.66;5023725;28;45421;-80
2023/07/08 09:35:07;;;;;;;;;6.25;6.25;;;;;41.17;23.54;100665.81;5040754;28;44924;-71
2023/07/08 09:37:37;;;;;;;;;9.25;9.25;;;;;41.46;23.54;100684.75;5042790;28;46435;-72
2023/07/08 09:40:19;;;;;;;;;7.50;7.50;;;;;41.91;23.19;100693.56;5029253;28;45788;-77
2023/07/08 09:42:50;;;;;;;;;7.00;7.00;;;;;42.13;22.62;100651.09;5053377;28;45252;-69
2023/07/08 09:45:19;;;;;;;;;9.50;9.50;;;;;42.41;22.54;100694.00;5045421;28;45495;-72
2023/07/08 09:47:46;;;;;;;;;6.25;6.25;;;;;42.51;22.40;100690.47;5025733;28;48171;-80
2023/07/08 09:50:21;;;;;;;;;8.75;8.75;;;;;42.85;22.29;100692.72;5044579;28;45202;-76
2023/07/08 09:52:48;;;;;;;;;7.25;7.25;;;;;43.06;22.19;100692.72;5024097;28;45293;-79
2023/07/08 09:55:15;;;;;;;;;10.25;10.25;;;;;43.29;22.05;100685.78;5041255;28;45478;-74
2023/07/08 09:57:43;;;;;;;;;9.00;9.00;;;;;43.43;22.02;100686.00;5023173;28;46611;-71
2023/07/08 10:00:13;;;;;;;;;17.75;17.75;;;;;43.55;22.13;100679.38;5041057;28;45400;-78
2023/07/08 10:02:46;;;;;;;;;7.75;7.75;;;;;43.49;21.54;100676.63;5042745;28;45251;-71
2023/07/08 10:05:36;;;;;;;;;8.00;8.00;;;;;43.31;21.70;100675.28;5042021;28;45276;-69
2023/07/08 10:08:10;;;;;;;;;8.25;8.25;;;;;43.04;21.70;100672.78;5042350;28;45314;-70
2023/07/08 10:10:38;;;;;;;;;6.00;6.00;;;;;42.89;21.91;100677.22;5025149;28;45419;-73
2023/07/08 10:13:15;;;;;;;;;8.00;8.00;;;;;42.83;22.19;100658.94;5023346;28;45441;-76
2023/07/08 10:16:10;;;;;;;;;8.00;8.00;;;;;42.86;22.04;100672.25;5041594;28;45245;-76
2023/07/08 10:18:36;;;;;;;;;5.75;5.75;;;;;42.82;21.80;100671.13;5040735;28;45339;-75
2023/07/08 10:21:21;;;;;;;;;8.50;8.50;;;;;42.80;21.90;100653.13;5041319;28;45245;-68
2023/07/08 10:24:24;;;;;;;;;11.50;11.25;;;;;42.97;21.81;100667.56;5040208;28;45221;-69
2023/07/08 10:27:05;;;;;;;;;7.00;7.00;;;;;43.06;21.86;100665.03;5041009;28;45340;-70
2023/07/08 10:29:52;;;;;;;;;7.00;7.00;;;;;43.17;22.09;100665.88;5040479;28;46467;-71
2023/07/08 10:32:45;;;;;;;;;8.50;8.50;;;;;43.18;21.64;100668.34;5042251;28;45577;-77
2023/07/08 10:35:18;;;;;;;;;7.50;7.50;;;;;42.97;21.49;100653.72;5023667;28;46005;-81
2023/07/08 10:37:58;;;;;;;;;16.50;16.25;;;;;43.06;21.59;100676.94;5041529;28;45535;-80
2023/07/08 10:40:45;;;;;;;;;7.75;7.75;;;;;43.10;21.56;100679.97;5040741;28;45356;-72
2023/07/08 10:43:33;;;;;;;;;7.00;7.00;;;;;42.99;21.60;100683.88;5040946;28;45277;-80
2023/07/08 10:46:09;;;;;;;;;9.25;9.25;;;;;43.04;21.48;100681.09;5042744;28;45568;-80
2023/07/08 10:48:53;;;;;;;;;7.25;7.25;;;;;43.02;21.68;100673.09;5042874;28;45360;-74
2023/07/08 10:51:40;;;;;;;;;9.75;9.75;;;;;42.87;21.69;100673.06;5044263;28;46197;-68
2023/07/08 10:54:27;;;;;;;;;12.00;11.25;;;;;42.95;21.58;100680.00;5047025;28;44743;-72
2023/07/08 10:57:20;;;;;;;;;10.75;10.75;;;;;42.87;21.67;100671.16;5024348;28;45456;-76
2023/07/08 11:00:13;;;;;;;;;8.00;8.00;;;;;42.83;21.52;100680.22;5041195;28;45471;-76
2023/07/08 11:03:19;;;;;;;;;6.50;6.50;;;;;42.80;21.52;100683.56;5026115;28;46188;-80
2023/07/08 11:05:58;;;;;;;;;7.75;7.75;;;;;43.02;21.50;100681.38;5042100;28;45462;-74
2023/07/08 11:08:30;;;;;;;;;8.25;8.25;;;;;43.17;21.30;100682.47;5042315;28;45229;-72
2023/07/08 11:11:03;;;;;;;;;11.00;10.25;;;;;43.23;20.92;100674.97;5026074;28;45435;-82
2023/07/08 11:13:31;;;;;;;;;8.75;8.75;;;;;43.30;21.06;100668.06;5026253;28;45935;-75
2023/07/08 11:16:16;;;;;;;;;9.25;9.25;;;;;43.45;20.92;100663.59;5050519;28;45279;-73
2023/07/08 11:19:25;;;;;;;;;14.00;14.00;;;;;43.54;20.74;100663.88;5051800;28;45331;-69
2023/07/08 11:21:57;;;;;;;;;8.75;8.25;;;;;43.67;21.18;100668.78;4943267;28;45298;-75
2023/07/08 11:24:46;;;;;;;;;12.25;12.25;;;;;43.75;20.20;100665.47;5030917;28;45308;-71
2023/07/08 11:27:19;;;;;;;;;7.75;7.75;;;;;43.86;20.44;100659.88;5042124;28;45272;-78
2023/07/08 11:29:53;;;;;;;;;11.50;11.50;;;;;43.98;20.58;100663.13;5041517;28;45356;-71
2023/07/08 11:32:23;;;;;;;;;8.25;8.25;;;;;44.04;20.55;100653.66;5042774;28;45233;-77